Historique des mesures à Cassis (13260), France
Quotidien Résumé Avril 17, 2017 Unités:  US    Métrique   Métrique/US
« Précédent (Jour)
Suivant (Jour) »
Quotidien Hebdomadaire Mensuel Annuel Période au choix
  Maximum: Minimum: Moyenne:
Température: 32 °F 52.7 °F 61.7 °F
Point de rosée: 32 °F 33.3 °F 38.5 °F
Humidité: Humidity % 29 % 40 %
Vitesse du vent: WindSpeedKMH mph 2.6 mph 14 mph
Rafales: WindSpeedGustKMH mph - -
Vent:- - SSW
Pression: 0 in 29.8 in -
Précipitations: 0 in    
Historical Graphs
 
 
Mesures pour : Avril 17, 2017
Heure Temperature Point de rosée Pression Vent Vitesse du vent Rafales Humidité Pluie (par heure) Conditions
32 °F 32 °F 0 in Calm     Humidity % 0 in SoftwareType W/m2
00:11 62.2 °F 33.3 °F 29.8 in NW 28.8 mph 47.5 mph 34 % 0 in open2300-1.11 W/m2
01:11 59.5 °F 35.8 °F 29.9 in NNW 8.7 mph 39.3 mph 41 % 0 in open2300-1.11 W/m2
02:11 57 °F 36.3 °F 29.9 in WNW 29.9 mph 29.9 mph 46 % 0 in open2300-1.11 W/m2
03:11 55.2 °F 37.2 °F 29.9 in NW 32.3 mph 34.1 mph 51 % 0 in open2300-1.11 W/m2
04:11 54.7 °F 36.9 °F 29.9 in ESE 6.1 mph 11.9 mph 51 % 0 in open2300-1.11 W/m2
05:11 53.8 °F 37.6 °F 29.9 in NW 23.3 mph 23.3 mph 54 % 0 in open2300-1.11 W/m2
06:11 53.4 °F 37 °F 29.9 in North 14.3 mph 14.3 mph 54 % 0 in open2300-1.11 W/m2
07:11 52.7 °F 36.9 °F 29.9 in NNE 8.2 mph 30.6 mph 55 % 0 in open2300-1.11 W/m2
08:11 55.6 °F 37.8 °F 29.9 in WNW 5.8 mph 8.2 mph 51 % 0 in open2300-1.11 W/m2
09:11 56.1 °F 38.7 °F 29.9 in ENE 5.0 mph 7.2 mph 52 % 0 in open2300-1.11 W/m2
10:11 58.3 °F 39.2 °F 29.9 in NNE 4.0 mph 5.8 mph 49 % 0 in open2300-1.11 W/m2
11:11 65.1 °F 40.8 °F 29.9 in NW 9.7 mph 30.2 mph 41 % 0 in open2300-1.11 W/m2
12:11 68.7 °F 42.1 °F 29.9 in NNW 2.6 mph 10.5 mph 38 % 0 in open2300-1.11 W/m2
13:11 69.3 °F 41 °F 29.9 in NW 13.7 mph 18.3 mph 36 % 0 in open2300-1.11 W/m2
14:11 69.4 °F 40.5 °F 29.9 in North 4.0 mph 18.7 mph 35 % 0 in open2300-1.11 W/m2
15:11 70.5 °F 40.6 °F 29.9 in NNE 6.4 mph 6.4 mph 34 % 0 in open2300-1.11 W/m2
16:11 71.4 °F 40.6 °F 29.8 in NE 14.0 mph 14.0 mph 33 % 0 in open2300-1.11 W/m2
17:11 72.1 °F 38.1 °F 29.8 in NNE 14.0 mph 16.3 mph 29 % 0 in open2300-1.11 W/m2
18:11 72.3 °F 38.1 °F 29.8 in NW 37.0 mph 37.0 mph 29 % 0 in open2300-1.11 W/m2
19:11 70 °F 40.3 °F 29.8 in West 15.1 mph 20.1 mph 34 % 0 in open2300-1.11 W/m2
20:11 67.8 °F 40.5 °F 29.8 in WNW 28.2 mph 28.2 mph 37 % 0 in open2300-1.11 W/m2
21:11 65.8 °F 41.4 °F 29.8 in NNW 8.2 mph 23.0 mph 41 % 0 in open2300-1.11 W/m2
22:11 64.8 °F 41 °F 29.8 in NE 14.8 mph 14.8 mph 42 % 0 in open2300-1.11 W/m2
23:11 63.7 °F 39.6 °F 29.8 in NNW 15.8 mph 31.7 mph 41 % 0 in open2300-1.11 W/m2
Observations météo à CASSIS
WU-History script by Weather Underground - 1 mb